Terminal Aerodrome Forecast
Issued by NWS

Home | Current Version | Previous Version | Text Only | Print | Product List | Glossary On
Versions: 1 2 3 4 5 6 7 8 9 10 11 12
000
FTUS45 KRIW 160500
TAFCPR
TAF
KCPR 160523Z 1606/1706 VRB06KT P6SM FEW120
     FM161100 24007KT P6SM FEW120
     FM161800 24012G18KT P6SM SCT120
     FM162100 29013G18KT P6SM SCT120
     FM170100 36007KT P6SM SCT120=

USA.gov is the U.S. government's official web portal to all federal, state and local government web resources and services.